Terminal Aerodrome Forecast
Issued by NWS

Home | Current Version | Previous Version | Graphics & Text | Print | Product List | Glossary On
Versions: 1 2 3 4 5 6 7 8 9 10 11 12 13 14
000
FTUS43 KMPX 301722
TAFRWF
TAF
KRWF 301722Z 3018/3118 30011G19KT P6SM SKC
     FM302330 25005KT P6SM SKC
     FM311600 30010G16KT P6SM SKC=

USA.gov is the U.S. government's official web portal to all federal, state and local government web resources and services.